createdAt,value
2018-09-19T00:00:30.488Z,4.93
2018-09-19T00:03:04.839Z,5.20
2018-09-19T00:05:39.187Z,4.47
2018-09-19T00:08:13.609Z,4.23
2018-09-19T00:10:47.967Z,5.00
2018-09-19T00:13:22.307Z,4.43
2018-09-19T00:15:56.784Z,4.40
2018-09-19T00:18:31.490Z,4.27
2018-09-19T00:21:05.829Z,4.43
2018-09-19T00:23:40.153Z,4.70
2018-09-19T00:26:14.764Z,4.40
2018-09-19T00:28:49.489Z,5.27
2018-09-19T00:31:24.030Z,4.57
2018-09-19T00:33:58.421Z,5.07
2018-09-19T00:36:32.653Z,4.83
2018-09-19T00:39:08.262Z,4.10
2018-09-19T00:41:42.460Z,4.57
2018-09-19T00:44:16.787Z,5.43
2018-09-19T00:46:51.147Z,4.53
2018-09-19T00:49:25.543Z,5.03
2018-09-19T00:51:59.809Z,4.50
2018-09-19T00:54:34.237Z,4.93
2018-09-19T00:57:08.616Z,4.70
2018-09-19T00:59:43.162Z,5.30
2018-09-19T01:02:17.419Z,4.87
2018-09-19T01:04:51.807Z,4.97
2018-09-19T01:07:26.176Z,5.37
2018-09-19T01:10:00.570Z,4.87
2018-09-19T01:12:34.959Z,4.73
2018-09-19T01:15:09.332Z,4.93
2018-09-19T01:17:43.785Z,5.17
2018-09-19T01:20:18.012Z,4.97
2018-09-19T01:22:52.401Z,5.50
2018-09-19T01:25:26.632Z,5.23
2018-09-19T01:28:01.777Z,5.97
2018-09-19T01:30:36.267Z,5.47
2018-09-19T01:33:10.701Z,5.37
2018-09-19T01:35:44.939Z,5.93
2018-09-19T01:38:19.364Z,5.50
2018-09-19T01:40:53.963Z,5.80
2018-09-19T01:43:28.507Z,5.57
2018-09-19T01:46:03.353Z,5.63
2018-09-19T01:48:37.718Z,5.40
2018-09-19T01:51:12.489Z,6.00
2018-09-19T01:56:45.603Z,6.47
2018-09-19T01:59:20.030Z,5.77
2018-09-19T02:01:54.555Z,5.27
2018-09-19T02:04:28.973Z,6.03
2018-09-19T02:07:03.675Z,5.63
2018-09-19T02:09:38.122Z,7.07
2018-09-19T02:12:12.366Z,4.93
2018-09-19T02:14:46.712Z,4.80
2018-09-19T02:17:21.041Z,5.43
2018-09-19T02:19:55.429Z,5.63
2018-09-19T02:22:29.752Z,5.40
2018-09-19T02:25:04.185Z,4.90
2018-09-19T02:27:38.805Z,5.43
2018-09-19T02:30:13.197Z,5.10
2018-09-19T02:32:47.557Z,5.00
2018-09-19T02:35:21.957Z,5.33
2018-09-19T02:37:56.375Z,5.57
2018-09-19T02:40:35.970Z,5.77
2018-09-19T02:43:11.287Z,5.03
2018-09-19T02:45:54.051Z,5.00
2018-09-19T02:48:46.251Z,5.97
2018-09-19T02:51:20.833Z,5.50
2018-09-19T02:53:55.125Z,4.53
2018-09-19T02:56:29.452Z,5.07
2018-09-19T02:59:03.739Z,5.57
2018-09-19T03:01:38.039Z,5.60
2018-09-19T03:04:12.521Z,6.77
2018-09-19T03:06:46.889Z,5.73
2018-09-19T03:09:21.317Z,6.37
2018-09-19T03:11:55.686Z,5.53
2018-09-19T03:14:30.140Z,5.43
2018-09-19T03:17:04.636Z,6.13
2018-09-19T03:19:38.960Z,5.60
2018-09-19T03:22:13.212Z,5.80
2018-09-19T03:24:47.722Z,6.93
2018-09-19T03:27:21.963Z,6.27
2018-09-19T03:29:56.267Z,6.90
2018-09-19T03:32:30.674Z,6.00
2018-09-19T03:35:05.026Z,6.30
2018-09-19T03:37:39.284Z,6.80
2018-09-19T03:40:13.657Z,6.27
2018-09-19T03:42:48.050Z,5.13
2018-09-19T03:45:22.487Z,5.87
2018-09-19T03:47:56.760Z,5.77
2018-09-19T03:50:31.180Z,6.30
2018-09-19T03:53:05.605Z,6.27
2018-09-19T03:55:40.039Z,5.83
2018-09-19T03:58:14.448Z,5.80
2018-09-19T04:00:48.805Z,6.57
2018-09-19T04:03:23.195Z,6.23
2018-09-19T04:05:57.657Z,5.77
2018-09-19T04:08:32.282Z,6.10
2018-09-19T04:11:06.812Z,6.27
2018-09-19T04:13:41.139Z,5.87
2018-09-19T04:16:15.558Z,6.23
2018-09-19T04:18:49.863Z,6.53
2018-09-19T04:21:24.333Z,6.33
2018-09-19T04:23:58.612Z,5.40
2018-09-19T04:26:32.965Z,5.73
2018-09-19T04:29:07.304Z,5.87
2018-09-19T04:31:41.852Z,6.03
2018-09-19T04:34:16.694Z,6.37
2018-09-19T04:36:51.069Z,5.70
2018-09-19T04:39:25.506Z,6.07
2018-09-19T04:41:59.920Z,5.63
2018-09-19T04:44:34.315Z,5.70
2018-09-19T04:47:08.626Z,5.90
2018-09-19T04:49:43.101Z,5.23
2018-09-19T04:52:17.451Z,5.83
2018-09-19T04:54:51.844Z,5.63
2018-09-19T04:57:26.605Z,5.60
2018-09-19T05:00:17.791Z,5.23
2018-09-19T05:02:52.127Z,6.07
2018-09-19T05:05:43.394Z,6.63
2018-09-19T05:08:27.624Z,6.70
2018-09-19T05:11:01.896Z,6.23
2018-09-19T05:13:36.309Z,6.63
2018-09-19T05:16:10.606Z,6.10
2018-09-19T05:18:44.912Z,6.13
2018-09-19T05:21:19.228Z,6.87
2018-09-19T05:24:12.128Z,6.90
2018-09-19T05:26:46.491Z,6.67
2018-09-19T05:29:21.179Z,7.33
2018-09-19T05:31:55.613Z,6.93
2018-09-19T05:34:29.994Z,6.97
2018-09-19T05:37:04.403Z,7.00
2018-09-19T05:39:38.783Z,6.60
2018-09-19T05:42:13.177Z,6.20
2018-09-19T05:44:47.610Z,7.10
2018-09-19T05:47:22.003Z,6.60
2018-09-19T05:49:56.433Z,6.93
2018-09-19T05:52:30.857Z,7.20
2018-09-19T05:55:05.389Z,6.17
2018-09-19T05:57:39.867Z,6.43
2018-09-19T06:00:14.217Z,5.97
2018-09-19T06:02:48.485Z,6.20
2018-09-19T06:05:23.097Z,6.17
2018-09-19T06:07:57.547Z,6.87
2018-09-19T06:10:32.003Z,7.60
2018-09-19T06:13:06.311Z,6.47
2018-09-19T06:15:40.674Z,7.70
2018-09-19T06:18:15.118Z,6.63
2018-09-19T06:20:49.505Z,6.03
2018-09-19T06:23:23.935Z,6.50
2018-09-19T06:25:58.340Z,7.67
2018-09-19T06:28:32.620Z,6.93
2018-09-19T06:31:07.293Z,6.27
2018-09-19T06:33:41.693Z,6.70
2018-09-19T06:36:16.092Z,6.37
2018-09-19T06:38:50.324Z,5.87
2018-09-19T06:41:24.734Z,6.40
2018-09-19T06:43:59.139Z,6.03
2018-09-19T06:46:33.567Z,5.20
2018-09-19T06:49:07.805Z,5.00
2018-09-19T06:51:42.055Z,4.97
2018-09-19T06:54:16.509Z,5.17
2018-09-19T06:56:50.945Z,4.50
2018-09-19T06:59:25.763Z,5.57
2018-09-19T07:01:59.970Z,4.70
2018-09-19T07:04:34.319Z,4.57
2018-09-19T07:07:08.707Z,5.23
2018-09-19T07:09:42.979Z,4.37
2018-09-19T07:12:17.376Z,4.33
2018-09-19T07:14:51.637Z,4.73
2018-09-19T07:17:26.020Z,4.67
2018-09-19T07:20:00.418Z,4.70
2018-09-19T07:22:34.781Z,5.47
2018-09-19T07:25:09.260Z,4.83
2018-09-19T07:27:43.869Z,4.80
2018-09-19T07:30:18.168Z,4.63
2018-09-19T07:32:52.645Z,5.13
2018-09-19T07:35:27.028Z,5.50
2018-09-19T07:38:01.658Z,5.70
2018-09-19T07:40:35.932Z,5.27
2018-09-19T07:43:10.600Z,5.33
2018-09-19T07:45:44.975Z,5.07
2018-09-19T07:48:19.350Z,5.73
2018-09-19T07:50:53.784Z,4.83
2018-09-19T07:53:32.751Z,5.13
2018-09-19T07:56:07.142Z,5.23
2018-09-19T07:58:41.550Z,5.20
2018-09-19T08:01:16.007Z,5.50
2018-09-19T08:03:50.340Z,5.37
2018-09-19T08:06:24.734Z,5.10
2018-09-19T08:09:00.417Z,5.30
2018-09-19T08:11:34.704Z,5.57
2018-09-19T08:14:09.105Z,5.30
2018-09-19T08:16:43.443Z,4.90
2018-09-19T08:19:17.823Z,5.57
2018-09-19T08:21:52.231Z,4.63
2018-09-19T08:24:29.780Z,5.10
2018-09-19T08:27:03.971Z,4.80
2018-09-19T08:29:38.449Z,4.90
2018-09-19T08:32:12.760Z,5.80
2018-09-19T08:34:47.203Z,4.90
2018-09-19T08:37:21.643Z,4.47
2018-09-19T08:39:55.959Z,4.53
2018-09-19T08:42:30.372Z,5.30
2018-09-19T08:45:04.796Z,4.30
2018-09-19T08:47:39.249Z,4.40
2018-09-19T08:50:13.724Z,4.57
2018-09-19T08:52:48.017Z,4.17
2018-09-19T08:55:22.336Z,4.47
2018-09-19T08:57:56.880Z,3.93
2018-09-19T09:00:31.283Z,4.40
2018-09-19T09:03:06.013Z,3.80
2018-09-19T09:05:40.335Z,3.80
2018-09-19T09:08:14.695Z,4.00
2018-09-19T09:10:49.007Z,4.70
2018-09-19T09:13:23.672Z,3.77
2018-09-19T09:15:58.060Z,4.07
2018-09-19T09:18:32.448Z,4.40
2018-09-19T09:21:06.889Z,3.57
2018-09-19T09:23:41.271Z,3.80
2018-09-19T09:26:15.674Z,3.47
2018-09-19T09:28:49.922Z,4.40
2018-09-19T09:31:24.277Z,3.50
2018-09-19T09:33:58.657Z,3.90
2018-09-19T09:36:32.929Z,3.70
2018-09-19T09:39:07.776Z,3.87
2018-09-19T09:41:42.082Z,4.00
2018-09-19T09:44:16.337Z,4.27
2018-09-19T09:46:50.718Z,3.83
2018-09-19T09:49:25.104Z,4.13
2018-09-19T09:51:59.561Z,3.80
2018-09-19T09:54:34.317Z,3.83
2018-09-19T09:57:09.204Z,3.73
2018-09-19T09:59:43.572Z,3.53
2018-09-19T10:02:17.981Z,3.60
2018-09-19T10:04:52.388Z,4.13
2018-09-19T10:07:26.731Z,4.17
2018-09-19T10:10:01.361Z,3.57
2018-09-19T10:12:35.829Z,3.80
2018-09-19T10:15:10.224Z,3.90
2018-09-19T10:17:44.819Z,3.70
2018-09-19T10:20:19.384Z,4.10
2018-09-19T10:22:53.872Z,3.70
2018-09-19T10:25:28.197Z,4.23
2018-09-19T10:28:02.587Z,3.70
2018-09-19T10:30:37.080Z,3.87
2018-09-19T10:33:11.417Z,4.00
2018-09-19T10:35:45.673Z,4.10
2018-09-19T10:38:20.019Z,3.70
2018-09-19T10:40:54.471Z,4.00
2018-09-19T10:43:28.932Z,4.07
2018-09-19T10:46:03.336Z,3.90
2018-09-19T10:48:37.769Z,3.57
2018-09-19T10:51:12.072Z,3.90
2018-09-19T10:53:46.467Z,3.37
2018-09-19T10:56:20.985Z,4.00
2018-09-19T10:58:55.335Z,3.80
2018-09-19T11:01:29.659Z,3.97
2018-09-19T11:04:04.074Z,3.70
2018-09-19T11:06:38.421Z,3.50
2018-09-19T11:09:13.047Z,3.30
2018-09-19T11:11:47.487Z,3.20
2018-09-19T11:14:21.727Z,3.00
2018-09-19T11:16:56.239Z,3.33
2018-09-19T11:19:30.732Z,3.43
2018-09-19T11:22:05.235Z,3.07
2018-09-19T11:24:39.516Z,3.10
2018-09-19T11:27:13.896Z,3.10
2018-09-19T11:29:48.293Z,3.20
2018-09-19T11:32:22.582Z,3.60
2018-09-19T11:34:57.187Z,2.90
2018-09-19T11:37:31.475Z,3.30
2018-09-19T11:40:05.907Z,3.60
2018-09-19T11:42:40.262Z,2.73
2018-09-19T11:45:14.807Z,3.30
2018-09-19T11:47:49.123Z,3.00
2018-09-19T11:50:23.510Z,2.87
2018-09-19T11:52:58.036Z,3.13
2018-09-19T11:55:32.496Z,2.67
2018-09-19T11:58:06.754Z,3.20
2018-09-19T12:00:51.944Z,3.63
2018-09-19T12:03:36.675Z,2.93
2018-09-19T12:06:11.008Z,2.70
2018-09-19T12:08:46.653Z,3.07
2018-09-19T12:11:21.184Z,2.90
2018-09-19T12:13:55.624Z,3.00
2018-09-19T12:16:30.063Z,3.27
2018-09-19T12:19:05.731Z,3.30
2018-09-19T12:21:45.518Z,2.90
2018-09-19T12:24:42.964Z,3.30
2018-09-19T12:27:33.497Z,2.90
2018-09-19T12:30:28.368Z,3.23
2018-09-19T12:33:02.785Z,2.90
2018-09-19T12:35:36.992Z,2.87
2018-09-19T12:38:11.641Z,2.97
2018-09-19T12:40:46.223Z,3.20
2018-09-19T12:43:20.636Z,2.87
2018-09-19T12:45:54.985Z,3.30
2018-09-19T12:48:29.293Z,2.67
2018-09-19T12:51:03.712Z,3.37
2018-09-19T12:53:38.170Z,2.63
2018-09-19T12:56:12.581Z,3.83
2018-09-19T12:58:46.948Z,2.73
2018-09-19T13:01:21.380Z,2.93
2018-09-19T13:03:55.848Z,2.90
2018-09-19T13:06:30.304Z,2.90
2018-09-19T13:09:07.312Z,2.87
2018-09-19T13:11:41.695Z,2.97
2018-09-19T13:14:26.932Z,3.27
2018-09-19T13:17:01.320Z,3.10
2018-09-19T13:19:35.744Z,2.87
2018-09-19T13:22:10.176Z,3.20
2018-09-19T13:24:44.474Z,2.87
2018-09-19T13:27:19.068Z,3.10
2018-09-19T13:29:53.488Z,3.20
2018-09-19T13:32:28.235Z,3.67
2018-09-19T13:35:02.801Z,3.17
2018-09-19T13:37:37.225Z,2.73
2018-09-19T13:40:11.633Z,3.43
2018-09-19T13:42:46.040Z,3.00
2018-09-19T13:45:20.472Z,2.90
2018-09-19T13:47:54.863Z,3.03
2018-09-19T13:50:43.202Z,2.80
2018-09-19T13:53:21.892Z,3.33
2018-09-19T13:55:56.309Z,2.97
2018-09-19T13:58:30.748Z,3.23
2018-09-19T14:01:05.171Z,3.30
2018-09-19T14:03:39.657Z,2.90
2018-09-19T14:06:14.066Z,4.03
2018-09-19T14:08:48.472Z,3.23
2018-09-19T14:11:22.744Z,2.90
2018-09-19T14:13:57.010Z,3.30
2018-09-19T14:16:31.360Z,3.50
2018-09-19T14:19:06.470Z,3.13
2018-09-19T14:21:41.041Z,3.37
2018-09-19T14:24:15.869Z,3.10
2018-09-19T14:26:50.125Z,3.23
2018-09-19T14:29:24.575Z,3.10
2018-09-19T14:31:58.958Z,3.20
2018-09-19T14:34:34.430Z,3.27
2018-09-19T14:37:08.844Z,3.40
2018-09-19T14:39:43.255Z,3.27
2018-09-19T14:42:17.952Z,3.67
2018-09-19T14:44:52.386Z,3.23
2018-09-19T14:47:26.623Z,3.33
2018-09-19T14:50:01.356Z,2.77
2018-09-19T14:52:35.729Z,3.10
2018-09-19T14:55:10.266Z,3.03
2018-09-19T14:57:44.597Z,3.10
2018-09-19T15:00:19.052Z,2.83
2018-09-19T15:02:53.456Z,3.13
2018-09-19T15:05:27.813Z,3.03
2018-09-19T15:08:02.305Z,2.90
2018-09-19T15:10:36.631Z,3.07
2018-09-19T15:13:10.954Z,3.57
2018-09-19T15:15:45.348Z,3.23
2018-09-19T15:18:19.817Z,3.00
2018-09-19T15:20:54.133Z,3.47
2018-09-19T15:23:28.510Z,2.97
2018-09-19T15:26:02.964Z,3.03
2018-09-19T15:28:37.393Z,3.47
2018-09-19T15:31:11.704Z,3.10
2018-09-19T15:33:46.012Z,2.87
2018-09-19T15:36:20.444Z,3.03
2018-09-19T15:38:54.901Z,3.33
2018-09-19T15:41:30.440Z,3.20
2018-09-19T15:44:15.725Z,3.43
2018-09-19T15:46:50.225Z,3.13
2018-09-19T15:49:24.652Z,3.17
2018-09-19T15:51:59.036Z,2.93
2018-09-19T15:54:33.364Z,3.23
2018-09-19T15:57:07.766Z,2.93
2018-09-19T15:59:42.153Z,3.10
2018-09-19T16:02:16.656Z,3.63
2018-09-19T16:04:51.047Z,2.87
2018-09-19T16:07:25.483Z,3.20
2018-09-19T16:10:00.014Z,2.90
2018-09-19T16:12:34.524Z,3.30
2018-09-19T16:15:09.203Z,2.97
2018-09-19T16:17:43.877Z,3.30
2018-09-19T16:20:18.583Z,3.10
2018-09-19T16:22:53.330Z,2.90
2018-09-19T16:25:27.979Z,2.90
2018-09-19T16:28:02.630Z,3.40
2018-09-19T16:30:37.166Z,3.20
2018-09-19T16:33:12.035Z,3.30
2018-09-19T16:35:46.702Z,3.23
2018-09-19T16:38:21.367Z,3.30
2018-09-19T16:40:56.302Z,4.27
2018-09-19T16:43:30.908Z,3.80
2018-09-19T16:46:05.331Z,3.60
2018-09-19T16:48:39.673Z,3.87
2018-09-19T16:51:14.096Z,3.37
2018-09-19T16:53:48.666Z,3.40
2018-09-19T16:56:23.208Z,3.33
2018-09-19T16:58:58.098Z,3.60
2018-09-19T17:01:32.553Z,3.20
2018-09-19T17:04:07.078Z,3.20
2018-09-19T17:06:41.701Z,3.27
2018-09-19T17:09:16.277Z,2.90
2018-09-19T17:11:50.827Z,3.10
2018-09-19T17:14:25.402Z,3.10
2018-09-19T17:19:44.343Z,3.40
2018-09-19T17:22:18.729Z,3.30
2018-09-19T17:24:53.153Z,3.23
2018-09-19T17:27:27.577Z,2.87
2018-09-19T17:30:01.919Z,2.80
2018-09-19T17:32:36.332Z,3.23
2018-09-19T17:35:10.660Z,3.20
2018-09-19T17:37:45.100Z,3.30
2018-09-19T17:40:19.422Z,3.40
2018-09-19T17:42:53.679Z,3.37
2018-09-19T17:45:28.120Z,3.60
2018-09-19T17:48:02.689Z,3.40
2018-09-19T17:50:37.155Z,2.97
2018-09-19T17:53:11.485Z,3.07
2018-09-19T17:55:45.956Z,3.40
2018-09-19T17:58:20.336Z,3.33
2018-09-19T18:00:55.111Z,2.97
2018-09-19T18:03:29.449Z,3.37
2018-09-19T18:06:03.860Z,3.43
2018-09-19T18:08:38.287Z,3.23
2018-09-19T18:11:12.706Z,3.73
2018-09-19T18:13:47.059Z,3.17
2018-09-19T18:16:22.026Z,3.40
2018-09-19T18:18:56.380Z,3.70
2018-09-19T18:21:30.785Z,3.20
2018-09-19T18:24:05.102Z,2.90
2018-09-19T18:26:39.377Z,3.63
2018-09-19T18:29:14.090Z,3.13
2018-09-19T18:31:48.677Z,3.57
2018-09-19T18:34:23.339Z,3.43
2018-09-19T18:36:58.073Z,3.20
2018-09-19T18:39:32.701Z,3.30
2018-09-19T18:42:07.327Z,3.70
2018-09-19T18:44:41.931Z,4.43
2018-09-19T18:47:16.538Z,3.30
2018-09-19T18:49:51.334Z,3.33
2018-09-19T18:52:26.801Z,3.20
2018-09-19T18:55:01.414Z,2.97
2018-09-19T18:57:36.066Z,3.60
2018-09-19T19:00:10.724Z,3.63
2018-09-19T19:02:45.394Z,3.40
2018-09-19T19:05:19.965Z,3.67
2018-09-19T19:07:54.725Z,3.53
2018-09-19T19:10:29.446Z,4.13
2018-09-19T19:13:04.645Z,3.60
2018-09-19T19:15:39.365Z,3.80
2018-09-19T19:18:13.976Z,2.97
2018-09-19T19:20:48.876Z,3.33
2018-09-19T19:23:23.479Z,3.70
2018-09-19T19:25:58.169Z,4.33
2018-09-19T19:28:32.743Z,3.47
2018-09-19T19:31:07.361Z,3.83
2018-09-19T19:33:41.915Z,3.33
2018-09-19T19:36:16.585Z,3.20
2018-09-19T19:38:54.722Z,3.60
2018-09-19T19:41:30.545Z,3.03
2018-09-19T19:44:04.959Z,3.63
2018-09-19T19:46:39.441Z,3.40
2018-09-19T19:49:14.145Z,3.47
2018-09-19T19:51:48.625Z,4.00
2018-09-19T19:54:23.311Z,4.03
2018-09-19T19:56:57.952Z,4.00
2018-09-19T19:59:32.587Z,4.07
2018-09-19T20:02:07.105Z,3.30
2018-09-19T20:04:41.565Z,4.60
2018-09-19T20:07:17.126Z,4.00
2018-09-19T20:09:51.526Z,3.53
2018-09-19T20:12:26.104Z,3.20
2018-09-19T20:15:00.601Z,3.77
2018-09-19T20:17:35.284Z,3.80
2018-09-19T20:20:09.959Z,4.53
2018-09-19T20:22:44.466Z,3.43
2018-09-19T20:25:19.141Z,3.77
2018-09-19T20:27:53.809Z,4.43
2018-09-19T20:30:28.387Z,3.40
2018-09-19T20:33:02.972Z,3.97
2018-09-19T20:35:37.440Z,3.93
2018-09-19T20:38:11.834Z,4.67
2018-09-19T20:40:46.394Z,4.00
2018-09-19T20:43:21.040Z,3.90
2018-09-19T20:45:55.858Z,4.17
2018-09-19T20:48:30.357Z,4.17
2018-09-19T20:51:04.961Z,3.63
2018-09-19T20:53:39.569Z,4.60
2018-09-19T20:56:14.243Z,3.93
2018-09-19T20:58:48.801Z,4.23
2018-09-19T21:01:23.423Z,3.87
2018-09-19T21:03:58.162Z,4.13
2018-09-19T21:06:33.088Z,3.77
2018-09-19T21:09:07.665Z,4.17
2018-09-19T21:11:42.363Z,4.03
2018-09-19T21:14:16.921Z,4.13
2018-09-19T21:16:51.528Z,3.90
2018-09-19T21:19:27.284Z,3.10
2018-09-19T21:22:02.132Z,4.20
2018-09-19T21:24:36.713Z,3.30
2018-09-19T21:27:11.489Z,4.70
2018-09-19T21:29:46.013Z,3.40
2018-09-19T21:32:20.717Z,4.13
2018-09-19T21:34:55.346Z,3.93
2018-09-19T21:37:30.718Z,3.93
2018-09-19T21:40:05.239Z,3.97
2018-09-19T21:42:40.015Z,4.10
2018-09-19T21:45:14.628Z,3.77
2018-09-19T21:47:49.357Z,5.20
2018-09-19T21:50:24.133Z,4.00
2018-09-19T21:52:58.682Z,4.50
2018-09-19T21:55:33.293Z,3.53
2018-09-19T21:58:07.943Z,3.90
2018-09-19T22:00:43.075Z,4.77
2018-09-19T22:03:17.826Z,4.33
2018-09-19T22:05:52.670Z,4.67
2018-09-19T22:08:27.329Z,3.60
2018-09-19T22:11:02.032Z,3.80
2018-09-19T22:13:36.660Z,3.53
2018-09-19T22:16:11.182Z,3.90
2018-09-19T22:18:45.857Z,4.07
2018-09-19T22:21:20.604Z,3.43
2018-09-19T22:23:55.448Z,4.30
2018-09-19T22:26:29.990Z,3.57
2018-09-19T22:29:04.439Z,4.27
2018-09-19T22:31:39.167Z,4.13
2018-09-19T22:34:13.832Z,3.80
2018-09-19T22:36:48.420Z,4.00
2018-09-19T22:39:22.974Z,3.90
2018-09-19T22:41:57.530Z,3.27
2018-09-19T22:44:32.165Z,3.80
2018-09-19T22:47:07.113Z,3.93
2018-09-19T22:49:41.947Z,4.20
2018-09-19T22:52:16.509Z,3.80
2018-09-19T22:54:51.181Z,4.50
2018-09-19T22:57:25.852Z,3.80
2018-09-19T23:00:00.419Z,4.70
2018-09-19T23:02:35.198Z,4.47
2018-09-19T23:05:09.775Z,5.47
2018-09-19T23:07:44.621Z,4.13
2018-09-19T23:10:19.565Z,3.73
2018-09-19T23:12:54.111Z,4.20
2018-09-19T23:15:28.750Z,4.07
2018-09-19T23:18:03.513Z,4.07
2018-09-19T23:20:38.088Z,3.73
2018-09-19T23:23:12.709Z,4.60
2018-09-19T23:25:47.364Z,3.67
2018-09-19T23:28:22.036Z,4.57
2018-09-19T23:31:04.085Z,4.87
2018-09-19T23:36:43.281Z,4.83
2018-09-19T23:42:18.660Z,4.40
2018-09-19T23:44:57.400Z,5.17
2018-09-19T23:47:52.060Z,4.30
2018-09-19T23:50:31.162Z,4.30
2018-09-19T23:56:04.664Z,5.00
2018-09-19T23:58:39.325Z,3.90
